This is the latest recevied weather packets stored in our database for station/object 9W8JMR-13. If no packets are shown the sender has not sent any weather packets the latest 10 day(s).
| Time | Temp. | Humidity | Pressure | Rain* | Wind** | Luminosity | Snow |
|---|---|---|---|---|---|---|---|
| 1778198541 | 30° C | 73% | 1009.5 hPa | - | - | 0 W/m² | - |
| 1778198481 | 30° C | 73% | 1009.5 hPa | - | - | 0 W/m² | - |
| 1778198421 | 30° C | 73% | 1009.5 hPa | - | - | 0 W/m² | - |
| 1778198361 | 29.44° C | 74% | 1009.6 hPa | - | - | 0 W/m² | - |
| 1778198301 | 29.44° C | 74% | 1009.6 hPa | - | - | 0 W/m² | - |
| 1778198241 | 28.89° C | 74% | 1009.6 hPa | - | - | 0 W/m² | - |
| 1778198181 | 28.89° C | 74% | 1009.5 hPa | - | - | 0 W/m² | - |
| 1778198120 | 28.33° C | 74% | 1009.5 hPa | - | - | 0 W/m² | - |
| 1778198060 | 28.33° C | 74% | 1009.5 hPa | - | - | 0 W/m² | - |
| 1778198000 | 28.33° C | 74% | 1009.6 hPa | - | - | 0 W/m² | - |
| 1778197940 | 27.78° C | 74% | 1009.6 hPa | - | - | 0 W/m² | - |
| 1778195293 | 31.11° C | 68% | 1009.4 hPa | - | - | 0 W/m² | - |
| 1778195233 | 31.11° C | 68% | 1009.3 hPa | - | - | 0 W/m² | - |
| 1778195172 | 31.11° C | 68% | 1009.3 hPa | - | - | 0 W/m² | - |
| 1778195112 | 31.11° C | 68% | 1009.4 hPa | - | - | 0 W/m² | - |
| 1778195052 | 31.11° C | 68% | 1009.3 hPa | - | - | 0 W/m² | - |
| 1778194992 | 31.11° C | 68% | 1009.3 hPa | - | - | 0 W/m² | - |
| 1778194932 | 31.11° C | 68% | 1009.3 hPa | - | - | 0 W/m² | - |
| 1778194872 | 31.11° C | 68% | 1009.3 hPa | - | - | 0 W/m² | - |
| 1778194812 | 31.11° C | 68% | 1009.3 hPa | - | - | 0 W/m² | - |
| 1778194752 | 31.11° C | 68% | 1009.2 hPa | - | - | 0 W/m² | - |
| 1778194692 | 31.11° C | 68% | 1009.3 hPa | - | - | 0 W/m² | - |
| 1778194631 | 31.67° C | 68% | 1009.2 hPa | - | - | 0 W/m² | - |
| 1778194570 | 31.11° C | 68% | 1009.2 hPa | - | - | 0 W/m² | - |
| 1778194510 | 31.11° C | 68% | 1009.2 hPa | - | - | 0 W/m² | - |
* Rain since midnight (hover to see other rain measurements)
** Current wind speed in m/s (hover to see current wind gust speed)